Time;durP1;ratioP1;P1;durP2;ratioP2;P2;SDS_P1;SDS_P2;PMS_P1;PMS_P2;Temp;Humidity;BMP_temperature;BMP_pressure;BME280_temperature;BME280_humidity;BME280_pressure;Samples;Min_cycle;Max_cycle;Signal;HPM_P1;HPM_P2
2023/01/18 00:01:18;;;;;;;;;;;;;;;12.95;51.15;92902.06;4161218;28;20071;-63
2023/01/18 00:03:20;;;;;;;;;;;;;;;12.97;51.42;92872.91;4161375;28;19960;-61
2023/01/18 00:05:21;;;;;;;;;;;;;;;12.96;51.11;92851.06;4156072;28;20436;-57
2023/01/18 00:07:23;;;;;;;;;;;;;;;13.01;50.51;92861.72;4153130;28;19969;-59
2023/01/18 00:09:24;;;;;;;;;;;;;;;13.03;50.68;92869.41;4157889;28;19925;-59
2023/01/18 00:11:26;;;;;;;;;;;;;;;13.06;50.50;92859.28;4159960;28;19975;-61
2023/01/18 00:13:27;;;;;;;;;;;;;;;13.09;50.26;92840.41;4149317;28;19925;-60
2023/01/18 00:15:32;;;;;;;;;;;;;;;13.10;50.14;92838.63;4154762;28;19932;-60
2023/01/18 00:17:46;;;;;;;;;;;;;;;13.14;50.21;92870.50;4158950;28;20095;-60
2023/01/18 00:19:47;;;;;;;;;;;;;;;13.15;50.34;92862.41;4150543;28;20408;-61
2023/01/18 00:21:53;;;;;;;;;;;;;;;13.13;50.76;92822.38;4158445;28;19926;-61
2023/01/18 00:23:55;;;;;;;;;;;;;;;13.11;50.39;92827.06;4150892;28;19929;-59
2023/01/18 00:26:00;;;;;;;;;;;;;;;13.10;50.90;92849.91;4159783;28;20389;-59
2023/01/18 00:28:01;;;;;;;;;;;;;;;13.10;51.09;92805.22;4151477;28;19926;-58
2023/01/18 00:30:04;;;;;;;;;;;;;;;13.07;50.75;92799.59;4151725;28;19925;-59
2023/01/18 00:32:05;;;;;;;;;;;;;;;13.11;50.91;92859.41;4160405;28;19933;-59
2023/01/18 00:34:07;;;;;;;;;;;;;;;13.09;51.00;92779.94;4163548;28;19948;-61
2023/01/18 00:36:08;;;;;;;;;;;;;;;13.07;50.57;92824.06;4152215;28;19930;-58
2023/01/18 00:38:11;;;;;;;;;;;;;;;13.12;50.44;92773.47;4150136;28;19926;-59
2023/01/18 00:40:13;;;;;;;;;;;;;;;13.09;51.05;92785.22;4161661;28;19929;-59
2023/01/18 00:44:34;;;;;;;;;;;;;;;13.08;50.49;92815.16;4158229;28;20017;-60
2023/01/18 00:46:36;;;;;;;;;;;;;;;13.17;50.59;92833.28;4152999;28;19933;-61
2023/01/18 00:48:38;;;;;;;;;;;;;;;13.11;50.67;92848.09;4163462;28;19929;-60
2023/01/18 00:50:40;;;;;;;;;;;;;;;13.13;50.27;92838.16;4163330;28;20317;-61
2023/01/18 00:52:45;;;;;;;;;;;;;;;13.18;50.53;92861.16;4159075;28;19933;-59
2023/01/18 00:54:46;;;;;;;;;;;;;;;13.20;50.59;92835.44;4158347;28;20357;-61
2023/01/18 00:56:48;;;;;;;;;;;;;;;13.19;50.68;92854.91;4158248;28;19925;-60
2023/01/18 00:58:49;;;;;;;;;;;;;;;13.21;50.71;92861.53;4163268;28;20009;-60
2023/01/18 01:00:51;;;;;;;;;;;;;;;13.14;50.61;92871.28;4160299;28;19925;-61
2023/01/18 01:02:53;;;;;;;;;;;;;;;13.15;50.69;92858.97;4161381;28;20392;-60
2023/01/18 01:07:15;;;;;;;;;;;;;;;13.18;50.33;92896.13;4154694;28;19933;-59
2023/01/18 01:09:18;;;;;;;;;;;;;;;13.21;50.59;92866.78;4161734;28;20328;-61
2023/01/18 01:11:19;;;;;;;;;;;;;;;13.26;50.21;92837.19;4149654;28;20318;-61
2023/01/18 01:27:22;;;;;;;;;;;;;;;13.22;50.92;92867.59;4158898;28;19930;-59
2023/01/18 01:29:24;;;;;;;;;;;;;;;13.21;50.87;92824.72;4154384;28;19929;-61
2023/01/18 01:31:25;;;;;;;;;;;;;;;13.22;51.01;92838.66;4153758;28;19929;-60
2023/01/18 01:33:27;;;;;;;;;;;;;;;13.21;50.78;92832.59;4149596;28;19948;-59
2023/01/18 01:35:29;;;;;;;;;;;;;;;13.19;50.87;92862.78;4162864;28;20019;-60
2023/01/18 01:37:30;;;;;;;;;;;;;;;13.15;51.12;92822.97;4156233;28;19926;-59
2023/01/18 01:39:32;;;;;;;;;;;;;;;13.14;50.84;92868.66;4148208;28;20382;-60
2023/01/18 01:41:34;;;;;;;;;;;;;;;13.22;50.45;92828.16;4158955;28;20345;-60
2023/01/18 01:43:38;;;;;;;;;;;;;;;13.28;50.01;92841.25;4161655;28;20281;-61
2023/01/18 01:45:39;;;;;;;;;;;;;;;13.33;50.16;92830.06;4152852;28;19983;-58
2023/01/18 01:47:41;;;;;;;;;;;;;;;13.37;49.82;92804.13;4151312;28;19976;-59
2023/01/18 01:49:47;;;;;;;;;;;;;;;13.36;49.68;92890.13;4157415;28;20425;-60
2023/01/18 01:52:02;;;;;;;;;;;;;;;13.44;49.81;92845.13;4155277;28;19932;-60
2023/01/18 01:54:05;;;;;;;;;;;;;;;13.37;49.68;92849.63;4146968;28;19940;-59
2023/01/18 01:56:07;;;;;;;;;;;;;;;13.39;49.92;92866.00;4159713;28;19925;-60
2023/01/18 01:58:13;;;;;;;;;;;;;;;13.39;49.68;92846.78;4161102;28;19925;-60
2023/01/18 02:00:17;;;;;;;;;;;;;;;13.38;49.55;92866.22;4146193;28;20036;-59
2023/01/18 02:02:19;;;;;;;;;;;;;;;13.41;49.32;92776.34;4158175;28;20012;-60
2023/01/18 02:04:20;;;;;;;;;;;;;;;13.36;49.67;92868.25;4160815;28;19936;-58
2023/01/18 02:06:31;;;;;;;;;;;;;;;13.37;49.80;92828.59;4157616;28;19967;-60
2023/01/18 02:08:32;;;;;;;;;;;;;;;13.32;50.04;92857.38;4155528;28;19999;-61
2023/01/18 02:10:34;;;;;;;;;;;;;;;13.32;50.25;92865.28;4192798;28;20043;-59
2023/01/18 02:12:36;;;;;;;;;;;;;;;13.27;50.19;92943.97;4148818;28;19930;-59
2023/01/18 02:14:38;;;;;;;;;;;;;;;13.34;49.83;92880.84;4146057;28;20068;-61
2023/01/18 02:16:39;;;;;;;;;;;;;;;13.30;49.80;92872.59;4150916;28;19929;-60
2023/01/18 02:18:50;;;;;;;;;;;;;;;13.30;49.95;92872.59;4156198;28;19948;-61
2023/01/18 02:21:04;;;;;;;;;;;;;;;13.29;50.44;92850.75;4159797;28;19932;-59
2023/01/18 02:23:25;;;;;;;;;;;;;;;13.32;50.18;92865.28;4159698;28;20028;-65
2023/01/18 02:25:35;;;;;;;;;;;;;;;13.30;50.33;92873.38;4157439;28;19925;-60
2023/01/18 02:27:42;;;;;;;;;;;;;;;13.30;49.95;92870.75;4160483;28;19960;-59
2023/01/18 02:29:56;;;;;;;;;;;;;;;13.31;50.24;92892.59;4145591;28;19948;-58
2023/01/18 02:31:57;;;;;;;;;;;;;;;13.31;50.31;92893.41;4176378;28;19991;-62
2023/01/18 02:34:13;;;;;;;;;;;;;;;13.29;50.15;92911.22;4161904;28;19975;-59
2023/01/18 02:36:33;;;;;;;;;;;;;;;13.27;50.22;92909.78;4150887;28;19925;-57
2023/01/18 02:38:37;;;;;;;;;;;;;;;13.26;50.19;92895.84;4144738;28;19979;-60
2023/01/18 02:40:45;;;;;;;;;;;;;;;13.29;50.53;92892.00;4143687;28;19992;-58
2023/01/18 02:47:45;;;;;;;;;;;;;;;13.16;51.18;92895.53;4147135;28;19933;-64
2023/01/18 02:49:47;;;;;;;;;;;;;;;13.12;50.76;92912.81;4153949;28;19925;-61
2023/01/18 02:51:48;;;;;;;;;;;;;;;13.13;50.69;92906.50;4156360;28;19925;-60
2023/01/18 02:53:50;;;;;;;;;;;;;;;13.19;50.91;92891.69;4153499;28;19936;-61
2023/01/18 02:55:54;;;;;;;;;;;;;;;13.15;50.68;92907.09;4152229;28;20452;-61
2023/01/18 02:58:00;;;;;;;;;;;;;;;13.18;50.67;92914.53;4156544;28;20668;-61
2023/01/18 03:00:03;;;;;;;;;;;;;;;13.19;50.58;92954.81;4159408;28;19933;-62
2023/01/18 03:02:06;;;;;;;;;;;;;;;13.23;50.30;92942.84;4158423;28;19925;-60
2023/01/18 03:04:27;;;;;;;;;;;;;;;13.17;50.44;92912.94;4141186;28;19945;-60
2023/01/18 03:06:28;;;;;;;;;;;;;;;13.20;50.51;92890.66;4154094;28;19951;-60
2023/01/18 03:08:32;;;;;;;;;;;;;;;13.18;50.25;92900.59;4160346;28;19961;-60
2023/01/18 03:10:34;;;;;;;;;;;;;;;13.15;50.16;92937.84;4158253;28;19929;-61
2023/01/18 03:12:45;;;;;;;;;;;;;;;13.20;50.13;92903.81;4154498;28;19929;-61
2023/01/18 03:14:47;;;;;;;;;;;;;;;13.20;50.30;92925.66;4184018;28;19931;-60
2023/01/18 03:16:58;;;;;;;;;;;;;;;13.19;50.54;92904.84;4160975;28;19925;-61
2023/01/18 03:19:04;;;;;;;;;;;;;;;13.21;50.23;92895.72;4158756;28;19925;-60
2023/01/18 03:21:07;;;;;;;;;;;;;;;13.24;50.03;92895.25;4157224;28;19925;-61
2023/01/18 03:23:41;;;;;;;;;;;;;;;13.22;49.97;92873.63;4158259;28;19947;-61
2023/01/18 03:25:43;;;;;;;;;;;;;;;13.25;50.20;92898.69;4149707;28;19925;-60
2023/01/18 03:34:49;;;;;;;;;;;;;;;13.20;49.98;92895.91;4154807;28;19933;-61
2023/01/18 03:36:51;;;;;;;;;;;;;;;13.26;49.99;92890.59;4145240;28;20019;-61
2023/01/18 03:39:03;;;;;;;;;;;;;;;13.25;49.87;92902.13;4148020;28;19989;-59
2023/01/18 03:41:05;;;;;;;;;;;;;;;13.23;49.94;92906.03;4159088;28;20031;-59
2023/01/18 03:43:08;;;;;;;;;;;;;;;13.21;49.84;92831.81;4156732;28;20539;-59
2023/01/18 03:45:12;;;;;;;;;;;;;;;13.26;49.83;92885.31;4147762;28;19933;-59
2023/01/18 03:47:13;;;;;;;;;;;;;;;13.21;50.06;92924.63;4157914;28;19929;-60
2023/01/18 03:49:15;;;;;;;;;;;;;;;13.23;50.29;92908.66;4149256;28;20512;-59
2023/01/18 03:51:46;;;;;;;;;;;;;;;13.20;49.78;92852.03;4159653;28;19929;-60
2023/01/18 03:53:50;;;;;;;;;;;;;;;13.23;49.55;92921.78;4136060;28;19933;-60
2023/01/18 03:55:52;;;;;;;;;;;;;;;13.24;49.81;92913.66;4157775;28;20446;-62
2023/01/18 03:57:54;;;;;;;;;;;;;;;13.29;49.63;92911.22;4162095;28;19925;-60
2023/01/18 03:59:55;;;;;;;;;;;;;;;13.31;49.16;92808.44;4163768;28;20238;-61
2023/01/18 04:01:57;;;;;;;;;;;;;;;13.29;49.30;92834.97;4163755;28;19929;-60
2023/01/18 04:03:58;;;;;;;;;;;;;;;13.29;49.52;92870.97;4161961;28;20372;-57
2023/01/18 04:06:00;;;;;;;;;;;;;;;13.31;49.20;92863.66;4156259;28;19925;-59
2023/01/18 04:08:02;;;;;;;;;;;;;;;13.27;49.58;92892.22;4158258;28;20095;-61
2023/01/18 04:10:03;;;;;;;;;;;;;;;13.30;49.51;92917.28;4149546;28;20266;-58
2023/01/18 04:12:05;;;;;;;;;;;;;;;13.26;49.06;92902.94;4159225;28;19944;-60
2023/01/18 04:14:07;;;;;;;;;;;;;;;13.30;49.32;92896.25;4162584;28;19933;-61
2023/01/18 04:16:08;;;;;;;;;;;;;;;13.26;49.34;92884.53;4150815;28;19925;-59
2023/01/18 04:18:10;;;;;;;;;;;;;;;13.33;48.68;92893.16;4163973;28;19925;-60
2023/01/18 04:20:11;;;;;;;;;;;;;;;13.40;49.00;92907.06;4158846;28;20023;-60
2023/01/18 04:22:13;;;;;;;;;;;;;;;13.39;49.09;92908.06;4149108;28;19926;-61
2023/01/18 04:24:16;;;;;;;;;;;;;;;13.32;49.06;92900.25;4162587;28;19948;-60
2023/01/18 04:26:18;;;;;;;;;;;;;;;13.26;49.18;92890.59;4162205;28;19948;-59
2023/01/18 04:28:24;;;;;;;;;;;;;;;13.37;49.43;92902.22;4154109;28;19925;-59
2023/01/18 04:30:26;;;;;;;;;;;;;;;13.28;49.37;92854.38;4161894;28;19925;-61
2023/01/18 04:32:27;;;;;;;;;;;;;;;13.28;49.51;92903.53;4162143;28;20313;-57
2023/01/18 04:34:29;;;;;;;;;;;;;;;13.29;49.20;92881.47;4163749;28;20003;-60
2023/01/18 04:36:31;;;;;;;;;;;;;;;13.29;49.54;92897.25;4163144;28;19929;-57
2023/01/18 04:38:32;;;;;;;;;;;;;;;13.25;49.49;92903.94;4160592;28;20349;-59
2023/01/18 04:40:34;;;;;;;;;;;;;;;13.28;49.51;92882.50;4162630;28;20391;-60
2023/01/18 04:42:35;;;;;;;;;;;;;;;13.32;49.33;92870.53;4163057;28;19991;-61
2023/01/18 04:44:37;;;;;;;;;;;;;;;13.31;48.98;92909.19;4160277;28;19929;-59
2023/01/18 04:46:38;;;;;;;;;;;;;;;13.32;48.95;92896.84;4162774;28;19929;-60
2023/01/18 04:48:40;;;;;;;;;;;;;;;13.31;49.80;92911.00;4157574;28;19983;-62
2023/01/18 04:50:45;;;;;;;;;;;;;;;13.31;49.88;92882.06;4149859;28;20488;-62
2023/01/18 04:52:46;;;;;;;;;;;;;;;13.27;49.85;92889.59;4157604;28;19952;-60
2023/01/18 04:54:48;;;;;;;;;;;;;;;13.28;49.75;92872.78;4161819;28;20362;-60
2023/01/18 04:56:50;;;;;;;;;;;;;;;13.26;50.01;92848.50;4161756;28;19929;-59
2023/01/18 04:58:53;;;;;;;;;;;;;;;13.28;49.64;92903.53;4163381;28;19929;-61
2023/01/18 05:00:59;;;;;;;;;;;;;;;13.27;49.40;92878.25;4162073;28;19925;-60
2023/01/18 05:03:00;;;;;;;;;;;;;;;13.30;49.08;92877.84;4161335;28;19925;-60
2023/01/18 05:05:03;;;;;;;;;;;;;;;13.34;49.76;92881.66;4161133;28;20436;-59
2023/01/18 05:07:05;;;;;;;;;;;;;;;13.34;49.60;92907.16;4156676;28;20397;-61
2023/01/18 05:09:08;;;;;;;;;;;;;;;13.35;49.13;92851.69;4159508;28;19929;-61
2023/01/18 05:11:12;;;;;;;;;;;;;;;13.35;49.17;92899.00;4180189;28;20014;-60
2023/01/18 05:13:14;;;;;;;;;;;;;;;13.34;49.27;92870.31;4162392;28;20003;-60
2023/01/18 05:15:17;;;;;;;;;;;;;;;13.36;48.53;92874.34;4162766;28;19932;-62
2023/01/18 05:17:18;;;;;;;;;;;;;;;13.44;48.65;92855.63;4157947;28;19932;-61
2023/01/18 05:19:20;;;;;;;;;;;;;;;13.47;48.43;92854.38;4150542;28;19980;-61
2023/01/18 05:21:21;;;;;;;;;;;;;;;13.46;48.74;92824.63;4153022;28;20353;-63
2023/01/18 05:23:23;;;;;;;;;;;;;;;13.49;48.42;92844.44;4162399;28;20373;-59
2023/01/18 05:25:24;;;;;;;;;;;;;;;13.51;48.70;92880.00;4161971;28;20063;-60
2023/01/18 05:27:26;;;;;;;;;;;;;;;13.48;48.94;92842.81;4154548;28;19968;-60
2023/01/18 05:29:27;;;;;;;;;;;;;;;13.45;48.88;92888.00;4151235;28;19929;-62
2023/01/18 05:31:29;;;;;;;;;;;;;;;13.46;48.77;92936.94;4149163;28;19925;-58
2023/01/18 05:33:30;;;;;;;;;;;;;;;13.48;48.17;92890.97;4155031;28;19971;-61
2023/01/18 05:35:32;;;;;;;;;;;;;;;13.52;48.54;92907.13;4162883;28;19925;-60
2023/01/18 05:37:33;;;;;;;;;;;;;;;13.50;48.21;92938.91;4150522;28;20000;-60
2023/01/18 05:39:35;;;;;;;;;;;;;;;13.51;48.68;92908.16;4156608;28;19930;-61
2023/01/18 05:41:36;;;;;;;;;;;;;;;13.55;48.76;92921.66;4148236;28;20044;-59
2023/01/18 05:43:38;;;;;;;;;;;;;;;13.47;49.02;92917.50;4159170;28;19964;-58
2023/01/18 05:45:40;;;;;;;;;;;;;;;13.49;49.05;92865.47;4157257;28;19926;-60
2023/01/18 05:47:42;;;;;;;;;;;;;;;13.52;48.98;92918.44;4155121;28;19936;-59
2023/01/18 05:49:43;;;;;;;;;;;;;;;13.49;48.70;92900.47;4160704;28;20168;-62
2023/01/18 05:51:45;;;;;;;;;;;;;;;13.50;48.97;92938.09;4152793;28;19953;-60
2023/01/18 05:53:46;;;;;;;;;;;;;;;13.51;48.76;92914.22;4161616;28;19933;-60
2023/01/18 05:55:59;;;;;;;;;;;;;;;13.52;48.79;92899.22;4161667;28;20484;-61
2023/01/18 05:58:01;;;;;;;;;;;;;;;13.50;48.57;92920.47;4162128;28;19994;-61
2023/01/18 06:00:03;;;;;;;;;;;;;;;13.52;48.49;92917.63;4162494;28;19929;-61
2023/01/18 06:02:05;;;;;;;;;;;;;;;13.60;48.33;92913.91;4161923;28;19975;-61
2023/01/18 06:04:06;;;;;;;;;;;;;;;13.61;48.32;92913.69;4162507;28;19971;-61
2023/01/18 06:06:08;;;;;;;;;;;;;;;13.60;48.29;92927.06;4152579;28;19935;-59
2023/01/18 06:08:10;;;;;;;;;;;;;;;13.55;48.63;92926.91;4157369;28;19936;-62
2023/01/18 06:10:11;;;;;;;;;;;;;;;13.57;48.81;92914.34;4153210;28;20038;-61
2023/01/18 06:12:13;;;;;;;;;;;;;;;13.57;48.67;92912.50;4160204;28;19925;-61
2023/01/18 06:14:15;;;;;;;;;;;;;;;13.60;48.65;92906.81;4159562;28;19924;-60
2023/01/18 06:16:16;;;;;;;;;;;;;;;13.57;48.88;92940.66;4146392;28;19929;-61
2023/01/18 06:18:18;;;;;;;;;;;;;;;13.50;49.08;92932.84;4146676;28;20052;-63
2023/01/18 06:20:19;;;;;;;;;;;;;;;13.57;48.75;92909.09;4157828;28;20421;-62
2023/01/18 06:22:21;;;;;;;;;;;;;;;13.57;49.10;92932.75;4160748;28;19936;-61
2023/01/18 06:24:22;;;;;;;;;;;;;;;13.48;49.19;92934.88;4157492;28;19952;-60
2023/01/18 06:26:24;;;;;;;;;;;;;;;13.58;49.22;92969.38;4145578;28;19933;-61
2023/01/18 06:28:26;;;;;;;;;;;;;;;13.61;49.16;92936.56;4158684;28;20336;-62
2023/01/18 06:30:31;;;;;;;;;;;;;;;13.61;49.66;92953.16;4146876;28;19925;-60
2023/01/18 06:32:33;;;;;;;;;;;;;;;13.69;48.99;92981.00;4147181;28;19936;-61
2023/01/18 06:34:35;;;;;;;;;;;;;;;13.70;48.65;92953.66;4146938;28;20218;-62
2023/01/18 06:36:37;;;;;;;;;;;;;;;13.76;48.75;92965.13;4159121;28;19993;-60
2023/01/18 06:38:40;;;;;;;;;;;;;;;13.80;48.79;92946.03;4147417;28;19929;-61
2023/01/18 06:40:41;;;;;;;;;;;;;;;13.81;49.01;92933.69;4152305;28;19932;-61
2023/01/18 06:42:43;;;;;;;;;;;;;;;13.80;48.80;92900.50;4152565;28;20036;-60
2023/01/18 06:44:45;;;;;;;;;;;;;;;13.88;48.68;92916.00;4147445;28;20020;-60
2023/01/18 06:46:47;;;;;;;;;;;;;;;13.82;49.08;92890.56;4147521;28;20012;-60
2023/01/18 06:48:48;;;;;;;;;;;;;;;13.86;49.24;92833.81;4146256;28;19984;-58
2023/01/18 06:50:51;;;;;;;;;;;;;;;13.75;49.29;92901.19;4152108;28;20020;-61
2023/01/18 06:52:54;;;;;;;;;;;;;;;13.76;49.22;92920.41;4146480;28;19949;-61
2023/01/18 06:54:56;;;;;;;;;;;;;;;13.84;49.25;92909.56;4159602;28;19929;-58
2023/01/18 06:56:57;;;;;;;;;;;;;;;13.83;48.87;92914.03;4152788;28;19925;-61
2023/01/18 06:58:59;;;;;;;;;;;;;;;13.89;48.74;92946.53;4146598;28;19937;-61
2023/01/18 07:01:01;;;;;;;;;;;;;;;13.90;48.83;92925.28;4156918;28;19983;-61
2023/01/18 07:03:03;;;;;;;;;;;;;;;13.89;49.39;92893.91;4160004;28;20319;-62
2023/01/18 07:05:05;;;;;;;;;;;;;;;13.89;49.34;92904.44;4152363;28;19925;-62
2023/01/18 07:07:06;;;;;;;;;;;;;;;13.92;49.11;92917.94;4160326;28;20372;-61
2023/01/18 07:09:09;;;;;;;;;;;;;;;13.86;48.95;92882.00;4161093;28;20771;-62
2023/01/18 07:11:11;;;;;;;;;;;;;;;13.91;49.17;92918.97;4158244;28;20479;-62
2023/01/18 07:13:13;;;;;;;;;;;;;;;13.88;48.97;92910.72;4150929;28;19991;-61
2023/01/18 07:15:16;;;;;;;;;;;;;;;13.92;48.86;92939.00;4152264;28;19926;-59
2023/01/18 07:17:22;;;;;;;;;;;;;;;14.02;48.68;92940.31;4157919;28;20016;-60
2023/01/18 07:19:24;;;;;;;;;;;;;;;14.02;48.67;92925.31;4144948;28;19925;-60
2023/01/18 07:21:28;;;;;;;;;;;;;;;14.04;48.81;92965.38;4144538;28;20648;-60
2023/01/18 07:23:30;;;;;;;;;;;;;;;14.01;48.33;92926.34;4144400;28;19960;-61
2023/01/18 07:25:31;;;;;;;;;;;;;;;14.01;48.73;92925.53;4144742;28;19934;-62
2023/01/18 07:27:33;;;;;;;;;;;;;;;14.15;48.37;92926.94;4145555;28;20016;-61
2023/01/18 07:29:35;;;;;;;;;;;;;;;14.16;48.51;92925.94;4145323;28;19933;-60
2023/01/18 07:31:39;;;;;;;;;;;;;;;14.13;48.32;92911.41;4144735;28;19962;-60
2023/01/18 07:33:41;;;;;;;;;;;;;;;14.16;48.10;92898.81;4145795;28;20013;-59
2023/01/18 07:35:42;;;;;;;;;;;;;;;14.15;48.27;92942.75;4148936;28;19925;-48
2023/01/18 07:37:51;;;;;;;;;;;;;;;14.24;47.88;92930.88;4152996;28;19925;-46
2023/01/18 07:39:53;;;;;;;;;;;;;;;14.33;47.72;92934.81;4155514;28;19965;-48
2023/01/18 07:41:55;;;;;;;;;;;;;;;14.33;47.61;92932.16;4144932;28;19929;-46
2023/01/18 07:43:56;;;;;;;;;;;;;;;14.30;47.57;92940.53;4145005;28;19929;-47
2023/01/18 07:46:00;;;;;;;;;;;;;;;14.36;47.42;92951.19;4146015;28;19925;-48
2023/01/18 07:48:01;;;;;;;;;;;;;;;14.34;47.48;92936.41;4146092;28;19973;-48
2023/01/18 07:50:03;;;;;;;;;;;;;;;14.32;47.23;93035.91;4146978;28;19925;-46
2023/01/18 07:52:04;;;;;;;;;;;;;;;14.42;47.08;92940.56;4142956;28;19948;-48
2023/01/18 07:54:06;;;;;;;;;;;;;;;14.48;47.03;92989.72;4153240;28;19935;-45
2023/01/18 07:56:10;;;;;;;;;;;;;;;14.51;47.26;92976.06;4147935;28;19926;-45
2023/01/18 07:58:11;;;;;;;;;;;;;;;14.48;47.38;92984.44;4157336;28;19998;-45
2023/01/18 08:00:16;;;;;;;;;;;;;;;14.50;47.39;92989.50;4151198;28;19925;-44
2023/01/18 08:02:17;;;;;;;;;;;;;;;14.50;47.38;92995.56;4150621;28;20023;-45
2023/01/18 08:04:19;;;;;;;;;;;;;;;14.59;47.10;93038.25;4146073;28;20428;-45
2023/01/18 08:06:23;;;;;;;;;;;;;;;14.59;47.19;93048.78;4159051;28;19963;-46
2023/01/18 08:08:27;;;;;;;;;;;;;;;14.53;47.08;93060.19;4160678;28;19931;-48
2023/01/18 08:10:28;;;;;;;;;;;;;;;14.58;47.17;93041.88;4159643;28;19960;-46
2023/01/18 08:12:30;;;;;;;;;;;;;;;14.58;47.31;93064.81;4159959;28;19925;-46
2023/01/18 08:14:31;;;;;;;;;;;;;;;14.61;47.31;93077.56;4160637;28;20024;-46
2023/01/18 08:16:33;;;;;;;;;;;;;;;14.64;46.94;93077.09;4154066;28;19926;-48
2023/01/18 08:18:34;;;;;;;;;;;;;;;14.68;46.79;93112.53;4153739;28;19960;-48
2023/01/18 08:20:36;;;;;;;;;;;;;;;14.66;47.04;93056.59;4160003;28;20007;-46
2023/01/18 08:22:38;;;;;;;;;;;;;;;14.76;47.03;93092.97;4147602;28;20350;-47
2023/01/18 08:24:39;;;;;;;;;;;;;;;14.69;47.18;93098.31;4154040;28;19933;-46
2023/01/18 08:26:41;;;;;;;;;;;;;;;14.73;47.26;93084.47;4144387;28;19984;-45
2023/01/18 08:28:43;;;;;;;;;;;;;;;14.72;47.22;93096.03;4145136;28;20488;-48
2023/01/18 08:30:45;;;;;;;;;;;;;;;14.83;47.08;93109.50;4144724;28;19990;-50
2023/01/18 08:32:47;;;;;;;;;;;;;;;14.82;47.19;93089.41;4145824;28;19926;-47
2023/01/18 08:34:49;;;;;;;;;;;;;;;14.82;47.35;93086.78;4144438;28;19987;-48
2023/01/18 08:36:50;;;;;;;;;;;;;;;14.80;47.18;93068.56;4146199;28;19925;-47
2023/01/18 08:38:55;;;;;;;;;;;;;;;14.85;47.15;93073.97;4155216;28;20484;-45
2023/01/18 08:40:58;;;;;;;;;;;;;;;14.90;47.10;93105.72;4151798;28;20036;-47
2023/01/18 08:43:01;;;;;;;;;;;;;;;14.83;47.25;93088.41;4152481;28;19925;-45
2023/01/18 08:45:03;;;;;;;;;;;;;;;14.85;47.04;93073.16;4149987;28;19948;-45
2023/01/18 08:47:04;;;;;;;;;;;;;;;14.90;47.22;93074.06;4152652;28;20354;-46
2023/01/18 08:49:06;;;;;;;;;;;;;;;14.89;46.97;93071.69;4156136;28;20496;-47
2023/01/18 08:51:08;;;;;;;;;;;;;;;14.82;47.48;93095.50;4148010;28;20024;-46
2023/01/18 08:53:09;;;;;;;;;;;;;;;14.83;47.25;93097.09;4150018;28;20024;-44
2023/01/18 08:55:11;;;;;;;;;;;;;;;14.89;47.42;93090.13;4158140;28;19944;-49
2023/01/18 08:57:12;;;;;;;;;;;;;;;14.99;47.26;93110.66;4163281;28;20384;-48
2023/01/18 08:59:14;;;;;;;;;;;;;;;14.89;47.29;93106.75;4163319;28;20396;-46
2023/01/18 09:01:15;;;;;;;;;;;;;;;14.92;47.28;93108.13;4150683;28;20418;-46
2023/01/18 09:03:18;;;;;;;;;;;;;;;14.98;47.17;93096.69;4149067;28;19984;-47
2023/01/18 09:05:20;;;;;;;;;;;;;;;15.00;47.18;93126.28;4152231;28;19925;-45
2023/01/18 09:07:21;;;;;;;;;;;;;;;15.05;47.20;93118.50;4146377;28;20032;-44
2023/01/18 09:09:23;;;;;;;;;;;;;;;15.08;46.86;93128.59;4160938;28;20016;-43
2023/01/18 09:11:25;;;;;;;;;;;;;;;15.15;46.74;93124.03;4162464;28;19998;-46
2023/01/18 09:13:26;;;;;;;;;;;;;;;15.09;47.01;93134.69;4162561;28;19975;-47
2023/01/18 09:15:28;;;;;;;;;;;;;;;15.11;46.92;93143.97;4151099;28;19992;-46
2023/01/18 09:17:30;;;;;;;;;;;;;;;15.19;46.65;93127.03;4160102;28;19929;-45
2023/01/18 09:19:31;;;;;;;;;;;;;;;15.22;46.83;93109.94;4159359;28;19979;-46
2023/01/18 09:21:34;;;;;;;;;;;;;;;15.23;46.78;93154.56;4152990;28;19925;-47
2023/01/18 09:23:36;;;;;;;;;;;;;;;15.10;47.02;93144.19;4152248;28;20314;-47
2023/01/18 09:25:38;;;;;;;;;;;;;;;15.10;46.89;93131.81;4159431;28;19994;-47
2023/01/18 09:27:39;;;;;;;;;;;;;;;15.03;47.49;93136.38;4162752;28;19925;-45
2023/01/18 09:29:41;;;;;;;;;;;;;;;15.07;47.18;93166.53;4154384;28;19929;-48
2023/01/18 09:31:42;;;;;;;;;;;;;;;15.22;47.08;93191.72;4157453;28;19925;-47
2023/01/18 09:33:44;;;;;;;;;;;;;;;15.25;47.05;93178.06;4161116;28;20304;-47
2023/01/18 09:35:54;;;;;;;;;;;;;;;15.17;47.27;93152.03;4161707;28;19929;-50
2023/01/18 09:37:56;;;;;;;;;;;;;;;15.26;46.82;93148.81;4160988;28;20036;-46
2023/01/18 09:39:59;;;;;;;;;;;;;;;15.18;47.08;93174.72;4150323;28;19929;-46
2023/01/18 09:42:01;;;;;;;;;;;;;;;15.17;46.95;93165.22;4159064;28;20011;-46
2023/01/18 09:44:12;;;;;;;;;;;;;;;15.38;47.21;93169.16;4150956;28;19929;-46
2023/01/18 09:46:21;;;;;;;;;;;;;;;15.29;46.78;93171.31;4161455;28;19979;-48
2023/01/18 09:48:27;;;;;;;;;;;;;;;15.30;46.53;93205.38;4161860;28;20400;-47
2023/01/18 09:50:29;;;;;;;;;;;;;;;15.45;46.27;93169.88;4161029;28;20001;-45
2023/01/18 09:52:37;;;;;;;;;;;;;;;15.38;46.07;93158.59;4153957;28;19932;-48
2023/01/18 09:54:39;;;;;;;;;;;;;;;15.28;46.51;93144.13;4148277;28;19925;-51
2023/01/18 09:56:40;;;;;;;;;;;;;;;15.37;46.49;93163.06;4149870;28;19929;-47
2023/01/18 09:58:42;;;;;;;;;;;;;;;15.35;46.26;93149.31;4161503;28;19925;-46
2023/01/18 10:00:45;;;;;;;;;;;;;;;15.43;46.41;93150.81;4162204;28;19936;-46
2023/01/18 10:02:47;;;;;;;;;;;;;;;15.55;45.74;93176.22;4161714;28;20002;-49
2023/01/18 10:04:51;;;;;;;;;;;;;;;15.55;45.73;93136.63;4162638;28;19929;-45
2023/01/18 10:06:54;;;;;;;;;;;;;;;15.56;45.84;93156.69;4152399;28;19948;-45
2023/01/18 10:08:59;;;;;;;;;;;;;;;15.52;45.75;93113.31;4156409;28;19925;-45
2023/01/18 10:11:09;;;;;;;;;;;;;;;15.67;45.68;93154.31;4159700;28;20317;-45
2023/01/18 10:13:25;;;;;;;;;;;;;;;15.60;45.27;93130.66;4160205;28;19925;-46
2023/01/18 10:15:28;;;;;;;;;;;;;;;15.64;45.18;93096.66;4151704;28;19971;-47
2023/01/18 10:17:34;;;;;;;;;;;;;;;15.53;45.21;93128.13;4145316;28;20008;-46
2023/01/18 10:19:36;;;;;;;;;;;;;;;15.62;45.07;93096.13;4150479;28;19929;-49
2023/01/18 10:21:37;;;;;;;;;;;;;;;15.50;44.77;93139.13;4153921;28;20308;-49
2023/01/18 10:23:40;;;;;;;;;;;;;;;15.54;45.20;93116.53;4145311;28;19953;-47
2023/01/18 10:25:46;;;;;;;;;;;;;;;15.63;44.94;93110.91;4156095;28;19983;-46
2023/01/18 10:28:03;;;;;;;;;;;;;;;15.64;44.79;93128.34;4144462;28;20597;-45
2023/01/18 10:30:11;;;;;;;;;;;;;;;15.65;44.36;93112.28;4155223;28;19925;-45
2023/01/18 10:32:16;;;;;;;;;;;;;;;15.60;44.56;93092.91;4148762;28;19979;-48
2023/01/18 10:34:19;;;;;;;;;;;;;;;15.68;44.54;93111.03;4160734;28;19929;-51
2023/01/18 10:36:21;;;;;;;;;;;;;;;15.66;44.74;93113.09;4161288;28;20358;-45
2023/01/18 10:38:24;;;;;;;;;;;;;;;15.72;44.44;93122.75;4147165;28;20314;-48
2023/01/18 10:40:26;;;;;;;;;;;;;;;15.77;44.30;93133.47;4147525;28;19932;-48
2023/01/18 10:42:40;;;;;;;;;;;;;;;15.82;44.26;93128.28;4161517;28;19971;-47
2023/01/18 10:44:41;;;;;;;;;;;;;;;15.86;44.51;93152.41;4148613;28;19940;-46
2023/01/18 10:46:43;;;;;;;;;;;;;;;15.98;44.11;93166.38;4147176;28;19975;-49
2023/01/18 10:48:46;;;;;;;;;;;;;;;15.98;44.04;93150.53;4149231;28;19925;-47
2023/01/18 10:50:48;;;;;;;;;;;;;;;15.92;44.00;93152.28;4160879;28;19926;-46
2023/01/18 10:52:53;;;;;;;;;;;;;;;15.76;44.48;93177.50;4160510;28;19925;-45
2023/01/18 10:55:01;;;;;;;;;;;;;;;15.81;44.46;93186.59;4156241;28;19968;-48
2023/01/18 10:57:03;;;;;;;;;;;;;;;15.83;44.31;93164.22;4153862;28;19936;-50
2023/01/18 10:59:05;;;;;;;;;;;;;;;15.94;44.32;93170.56;4161669;28;20223;-48
2023/01/18 11:01:06;;;;;;;;;;;;;;;15.80;44.28;93108.44;4159675;28;19998;-49
2023/01/18 11:03:10;;;;;;;;;;;;;;;15.74;44.34;93178.78;4157331;28;19933;-46
2023/01/18 11:05:19;;;;;;;;;;;;;;;15.82;44.15;93154.69;4149788;28;19991;-48
2023/01/18 11:07:24;;;;;;;;;;;;;;;15.74;43.74;93157.66;4156285;28;19935;-49
2023/01/18 11:09:34;;;;;;;;;;;;;;;15.76;44.34;93156.41;4147406;28;19932;-46
2023/01/18 11:13:56;;;;;;;;;;;;;;;15.77;44.37;93158.03;4159384;28;20278;-45
2023/01/18 11:16:02;;;;;;;;;;;;;;;15.76;44.33;93168.78;4148016;28;19929;-48